Aérodrome :
LOGIN :

S'inscrire | Disclaimer

   EN    FR    IT 

 










Légende :    VFR   VFR Marginal   IFR   IFR Intensif   IFR Très Intensif
Visi : 
Plafond : 
>= 8 km
>= 3000ft
5 à 8 km
1000 à 3000 ft
1500m à 5 km
500 à 1000 ft
800 à 1500m
200 à 500 ft
< 800m
< 200 ft
Symboles :   Orages  Brouillard  Fortes neiges  Fortes précipitations  Vent > 20 kt
SIGMETs :   Divers  Orages  Givrage  Turbulence  Onde Orograph.  Cendres Volcan.







- Altitude de l'aérodrome : 353 ft
- Code IATA : ZAG


LDZA - Zagreb Pleso

DERNIER METAR :
  • 241000Z 10005KT 050V200 CAVOK 30/15 Q1016 NOSIG

METARs EXPIRÉS :
  • 240930Z VRB03KT CAVOK 30/18 Q1016 NOSIG
  • 240900Z 07005KT 330V140 CAVOK 29/17 Q1016 NOSIG
  • 240830Z 09004KT 350V150 CAVOK 29/17 Q1017 NOSIG
  • 240800Z 07005KT 010V120 CAVOK 27/17 Q1017 NOSIG
  • 240730Z 08004KT 360V140 CAVOK 26/17 Q1017 NOSIG

TAF AMD TAF LDZA
Valide du 23 à 19h jusqu'au 24 à 18h UTC


231913Z 2319/2418 25004KT CAVOK TX34/2413Z TN21/2402Z
PROB40
TEMPO 2319/2323 25010KT
PROB30
TEMPO 2319/2321 32015KT TSRA FEW050CB
PROB30
TEMPO 2412/2417 VRB15KT TSRA FEW040CB SCT045
ATIS : +385 1 6-259-214
Pas de NOTAMs connus pour ce terrain.



MET'MAP, la Météo Aéronautique d'un coup d'oeil ! - Copyright ORBIFLY Décembre 2007 - Disclaimer

ORBIFLY MET'MAP TEAM :

Programmation & Développement : Alexandra Zaïnal
Conception & Développement : Baudouin d'Aumeries
Co-Programmation & Développement : Marc-Olivier Méhu
Soutien technique & logistique : Manuel Goepfert

Contact : metmap@orbifly.com




SOURCES & CREDITS :

   NOAA